CheckWX is a tool to help pilots better visualize weather data.  It is not intended as a substitute for an official pre-flight weather briefing.

03:11:46 UTC

PABI METAR
Allen AAF Airport
Delta Junction Ft Greely, Alaska, USA
Current

19 mins ago

PABI 210253Z 07009KT 10SM FEW035 BKN085 OVC110 09/05 A2910 RMK AO2 RAE02 SLP864 PRESENT WX VCSH OCNL WATERFOWL VC P0000 60000 T00940050 58008
Observed
Sep-21 @ 02:53 UTC
Wind
  • 070° at 9 KTS
Visibility
10 SM
Flight Rules
VFR
Cloud Levels
  • Few at 3,500' AGL
  • Broken at 8,500' AGL
  • Overcast at 11,000' AGL
Temperature
C / 48°F
Dewpoint
C / 41°F
Humidity
76%
Altimeter
29.1" Hg
Pressure
985.42 hPa
Current Rain
0.01"
Previous

1 hour ago

PABI 210153Z 09014KT 10SM -RA SCT035 BKN065 OVC110 10/04 A2911 RMK AO2 RAB49 SLP865 PCPN VRY LGT OCNL WATERFOWL VC P0000 T01000044
Observed
Sep-21 @ 01:53 UTC
Wind
  • 090° at 14 KTS
Visibility
10 SM
Flight Rules
VFR
Conditions
Light Rain
Cloud Levels
  • Scattered at 3,500' AGL
  • Broken at 6,500' AGL
  • Overcast at 11,000' AGL
Temperature
10°C / 50°F
Dewpoint
C / 39°F
Humidity
67%
Altimeter
29.11" Hg
Pressure
985.82 hPa
Current Rain
0.01"
Previous

2 hours ago

PABI 210053Z 10013G23KT 10SM SCT035 BKN060 OVC110 11/04 A2912 RMK AO2 SLP869 SHRA DSNT NW WATERFOWL VC T01060044
Observed
Sep-21 @ 00:53 UTC
Wind
  • 100° at 13 KTS
  • Gusting to 23 KTS
Visibility
10 SM
Flight Rules
VFR
Cloud Levels
  • Scattered at 3,500' AGL
  • Broken at 6,000' AGL
  • Overcast at 11,000' AGL
Temperature
11°C / 52°F
Dewpoint
C / 39°F
Humidity
62%
Altimeter
29.12" Hg
Pressure
986.12 hPa